createdAt,value
2022-10-13T00:03:58.100Z,2.41
2022-10-13T00:09:02.078Z,2.42
2022-10-13T00:14:06.275Z,2.40
2022-10-13T00:19:14.861Z,2.39
2022-10-13T00:24:20.035Z,2.30
2022-10-13T00:29:24.328Z,2.22
2022-10-13T00:34:28.580Z,2.18
2022-10-13T00:39:33.382Z,2.19
2022-10-13T00:45:02.007Z,2.21
2022-10-13T00:50:10.643Z,2.19
2022-10-13T00:55:18.950Z,2.12
2022-10-13T01:00:25.446Z,2.05
2022-10-13T01:05:30.193Z,2.03
2022-10-13T01:11:09.382Z,2.01
2022-10-13T01:16:24.662Z,1.99
2022-10-13T01:21:30.833Z,2.04
2022-10-13T01:27:10.541Z,2.06
2022-10-13T01:32:37.828Z,2.00
2022-10-13T01:38:03.202Z,2.02
2022-10-13T01:43:26.537Z,2.09
2022-10-13T01:48:30.478Z,2.09
2022-10-13T01:53:36.220Z,2.05
2022-10-13T01:58:41.065Z,1.95
2022-10-13T02:04:02.231Z,1.90
2022-10-13T02:09:46.798Z,1.88
2022-10-13T02:14:53.526Z,1.85
2022-10-13T02:19:59.142Z,1.83
2022-10-13T02:25:04.750Z,1.79
2022-10-13T02:30:10.674Z,1.75
2022-10-13T02:35:14.950Z,1.74
2022-10-13T02:40:18.999Z,1.68
2022-10-13T02:45:24.439Z,1.64
2022-10-13T02:50:30.127Z,1.64
2022-10-13T02:55:34.418Z,1.65
2022-10-13T03:00:40.145Z,1.67
2022-10-13T03:05:44.439Z,1.71
2022-10-13T03:10:49.154Z,1.74
2022-10-13T03:15:55.302Z,1.78
2022-10-13T03:21:07.487Z,1.81
2022-10-13T03:26:12.173Z,1.92
2022-10-13T03:31:16.072Z,2.04
2022-10-13T03:36:19.831Z,2.07
2022-10-13T03:41:23.548Z,2.10
2022-10-13T03:46:30.096Z,2.03
2022-10-13T03:51:34.594Z,2.11
2022-10-13T03:56:41.290Z,2.18
2022-10-13T04:01:46.369Z,2.30
2022-10-13T04:06:51.044Z,2.27
2022-10-13T04:11:55.417Z,2.18
2022-10-13T04:17:00.131Z,2.18
2022-10-13T04:22:04.422Z,2.26
2022-10-13T04:27:09.136Z,2.30
2022-10-13T04:32:13.040Z,2.21
2022-10-13T04:37:18.074Z,2.11
2022-10-13T04:42:21.716Z,2.15
2022-10-13T04:47:25.345Z,2.15
2022-10-13T04:52:28.691Z,2.12
2022-10-13T04:57:32.690Z,2.04
2022-10-13T05:02:36.797Z,1.95
2022-10-13T05:07:39.939Z,1.85
2022-10-13T05:12:43.384Z,1.78
2022-10-13T05:17:47.705Z,1.77
2022-10-13T05:22:51.994Z,1.81
2022-10-13T05:27:56.282Z,1.94
2022-10-13T05:33:00.471Z,1.99
2022-10-13T05:38:04.886Z,1.94
2022-10-13T05:43:09.516Z,1.94
2022-10-13T05:48:14.348Z,2.05
2022-10-13T05:53:19.143Z,2.20
2022-10-13T05:58:24.505Z,2.34
2022-10-13T06:03:31.808Z,2.51
2022-10-13T06:08:36.280Z,2.75
2022-10-13T06:13:40.303Z,3.02
2022-10-13T06:18:43.755Z,3.25
2022-10-13T06:23:48.097Z,3.52
2022-10-13T06:28:56.946Z,3.84
2022-10-13T06:34:06.335Z,4.12
2022-10-13T06:39:10.584Z,4.39
2022-10-13T06:44:15.527Z,4.72
2022-10-13T06:49:24.398Z,5.09
2022-10-13T06:54:28.298Z,5.81
2022-10-13T06:59:31.456Z,7.30
2022-10-13T07:04:34.718Z,9.01
2022-10-13T07:09:38.747Z,10.63
2022-10-13T07:14:43.882Z,11.96
2022-10-13T07:19:49.116Z,12.91
2022-10-13T07:24:52.429Z,13.61
2022-10-13T07:29:56.857Z,14.07
2022-10-13T07:35:01.096Z,14.23
2022-10-13T07:40:06.564Z,14.21
2022-10-13T07:45:11.073Z,14.14
2022-10-13T07:50:16.076Z,14.17
2022-10-13T07:55:20.277Z,14.10
2022-10-13T08:00:24.542Z,13.94
2022-10-13T08:05:29.717Z,13.96
2022-10-13T08:10:34.201Z,13.74
2022-10-13T08:15:45.279Z,13.59
2022-10-13T08:20:49.132Z,13.57
2022-10-13T08:25:53.696Z,13.71
2022-10-13T08:30:58.270Z,13.96
2022-10-13T08:36:01.906Z,14.09
2022-10-13T08:47:15.627Z,14.38
2022-10-13T08:52:23.354Z,14.65
2022-10-13T08:57:26.742Z,14.69
2022-10-13T09:02:31.876Z,14.62
2022-10-13T09:07:38.324Z,14.75
2022-10-13T09:12:42.092Z,15.02
2022-10-13T09:17:46.208Z,14.91
2022-10-13T09:23:03.922Z,14.93
2022-10-13T09:28:18.442Z,15.05
2022-10-13T09:33:25.524Z,15.27
2022-10-13T09:38:29.745Z,15.40
2022-10-13T09:43:35.520Z,15.54
2022-10-13T09:48:43.402Z,15.64
2022-10-13T09:53:48.107Z,15.78
2022-10-13T09:58:59.202Z,15.87
2022-10-13T10:04:11.774Z,15.90
2022-10-13T10:09:35.103Z,15.97
2022-10-13T10:14:40.076Z,16.12
2022-10-13T10:19:52.710Z,16.27
2022-10-13T10:25:13.468Z,16.52
2022-10-13T10:30:20.478Z,16.59
2022-10-13T10:35:27.071Z,16.71
2022-10-13T10:40:45.926Z,16.83
2022-10-13T10:45:50.178Z,16.96
2022-10-13T10:50:54.495Z,16.97
2022-10-13T10:56:05.719Z,16.98
2022-10-13T11:01:12.964Z,17.08
2022-10-13T11:06:16.769Z,17.06
2022-10-13T11:11:26.750Z,16.85
2022-10-13T11:16:41.081Z,16.73
2022-10-13T11:22:00.096Z,16.72
2022-10-13T11:27:12.081Z,16.73
2022-10-13T11:32:36.806Z,16.86
2022-10-13T11:38:07.684Z,17.01
2022-10-13T11:43:20.295Z,17.18
2022-10-13T11:48:51.115Z,17.11
2022-10-13T11:54:24.127Z,17.09
2022-10-13T11:59:35.353Z,17.09
2022-10-13T12:04:46.277Z,16.98
2022-10-13T12:09:54.932Z,17.12
2022-10-13T12:15:02.607Z,17.17
2022-10-13T12:20:31.710Z,17.18
2022-10-13T12:25:37.208Z,17.26
2022-10-13T12:30:45.409Z,17.25
2022-10-13T12:35:48.952Z,17.25
2022-10-13T12:40:55.303Z,17.09
2022-10-13T12:45:58.857Z,16.99
2022-10-13T12:51:23.749Z,17.02
2022-10-13T12:56:32.252Z,16.93
2022-10-13T13:01:36.530Z,16.90
2022-10-13T13:06:55.486Z,16.93
2022-10-13T13:12:11.829Z,16.80
2022-10-13T13:17:52.973Z,16.67
2022-10-13T13:22:51.704Z,16.62
2022-10-13T13:27:55.978Z,16.54
2022-10-13T13:33:00.307Z,16.45
2022-10-13T13:38:05.755Z,16.28
2022-10-13T13:43:10.527Z,16.20
2022-10-13T13:48:15.445Z,16.09
2022-10-13T13:53:20.100Z,16.06
2022-10-13T13:58:24.555Z,16.05
2022-10-13T14:03:29.646Z,16.04
2022-10-13T14:08:36.194Z,16.04
2022-10-13T14:13:40.402Z,15.99
2022-10-13T14:18:45.380Z,15.81
2022-10-13T14:23:49.356Z,15.78
2022-10-13T14:28:54.658Z,15.78
2022-10-13T14:33:59.035Z,15.74
2022-10-13T14:39:02.493Z,15.65
2022-10-13T14:44:07.564Z,15.51
2022-10-13T14:49:12.478Z,15.42
2022-10-13T14:54:17.059Z,15.34
2022-10-13T14:59:21.299Z,15.20
2022-10-13T15:04:25.653Z,15.05
2022-10-13T15:09:44.864Z,14.91
2022-10-13T15:14:54.596Z,14.79
2022-10-13T15:19:59.024Z,14.63
2022-10-13T15:25:04.954Z,14.46
2022-10-13T15:30:10.517Z,14.25
2022-10-13T15:35:14.776Z,14.03
2022-10-13T15:40:19.054Z,13.78
2022-10-13T15:45:25.133Z,13.54
2022-10-13T15:50:31.625Z,13.27
2022-10-13T15:55:36.215Z,12.98
2022-10-13T16:00:41.468Z,12.73
2022-10-13T16:05:53.384Z,12.48
2022-10-13T16:10:57.396Z,12.24
2022-10-13T16:16:01.939Z,12.04
2022-10-13T16:21:18.312Z,11.83
2022-10-13T16:26:22.820Z,11.62
2022-10-13T16:31:27.049Z,11.40
2022-10-13T16:36:31.620Z,11.16
2022-10-13T16:41:35.069Z,10.90
2022-10-13T16:46:38.957Z,10.68
2022-10-13T16:51:43.131Z,10.45
2022-10-13T16:56:47.522Z,10.29
2022-10-13T17:01:53.846Z,10.21
2022-10-13T17:07:00.085Z,10.19
2022-10-13T17:12:04.529Z,10.19
2022-10-13T17:17:08.827Z,10.15
2022-10-13T17:22:13.046Z,10.10
2022-10-13T17:27:17.644Z,10.01
2022-10-13T17:32:22.706Z,9.91
2022-10-13T17:37:27.671Z,9.84
2022-10-13T17:42:32.072Z,9.78
2022-10-13T17:47:36.714Z,9.74
2022-10-13T17:52:41.853Z,9.70
2022-10-13T17:57:46.780Z,9.63
2022-10-13T18:02:51.403Z,9.60
2022-10-13T18:07:58.478Z,9.53
2022-10-13T18:13:02.176Z,9.48
2022-10-13T18:18:06.673Z,9.40
2022-10-13T18:23:10.563Z,9.33
2022-10-13T18:28:14.646Z,9.27
2022-10-13T18:33:19.139Z,9.20
2022-10-13T18:38:24.784Z,9.11
2022-10-13T18:43:31.532Z,9.02
2022-10-13T18:48:36.328Z,8.90
2022-10-13T18:53:43.694Z,8.82
2022-10-13T18:58:48.191Z,8.76
2022-10-13T19:03:54.319Z,8.77
2022-10-13T19:09:10.222Z,8.75
2022-10-13T19:14:15.929Z,8.72
2022-10-13T19:19:21.347Z,8.67
2022-10-13T19:24:27.993Z,8.64
2022-10-13T19:29:34.035Z,8.59
2022-10-13T19:34:40.959Z,8.53
2022-10-13T19:39:53.195Z,8.45
2022-10-13T19:45:06.129Z,8.37
2022-10-13T19:50:12.589Z,8.33
2022-10-13T19:55:18.778Z,8.32
2022-10-13T20:00:23.509Z,8.33
2022-10-13T20:05:27.708Z,8.31
2022-10-13T20:10:35.116Z,8.26
2022-10-13T20:15:41.621Z,8.20
2022-10-13T20:20:46.065Z,8.14
2022-10-13T20:25:50.102Z,8.12
2022-10-13T20:30:54.257Z,8.15
2022-10-13T20:36:13.185Z,8.20
2022-10-13T20:41:20.972Z,8.19
2022-10-13T20:46:26.659Z,8.21
2022-10-13T20:51:30.824Z,8.18
2022-10-13T20:56:34.879Z,8.16
2022-10-13T21:01:41.372Z,8.18
2022-10-13T21:06:46.702Z,8.17
2022-10-13T21:11:51.546Z,8.18
2022-10-13T21:16:55.686Z,8.21
2022-10-13T21:21:59.980Z,8.20
2022-10-13T21:27:04.158Z,8.17
2022-10-13T21:32:08.264Z,8.12
2022-10-13T21:37:12.197Z,8.07
2022-10-13T21:42:16.750Z,8.06
2022-10-13T21:47:22.440Z,8.05
2022-10-13T21:52:28.322Z,7.97
2022-10-13T21:57:32.106Z,7.91
2022-10-13T22:02:36.333Z,7.88
2022-10-13T22:07:40.869Z,7.87
2022-10-13T22:12:45.295Z,7.89
2022-10-13T22:17:49.045Z,7.88
2022-10-13T22:22:53.571Z,7.86
2022-10-13T22:27:57.909Z,7.85
2022-10-13T22:33:02.208Z,7.86
2022-10-13T22:38:05.432Z,7.92
2022-10-13T22:43:09.541Z,7.96
2022-10-13T22:48:13.883Z,8.00
2022-10-13T22:53:18.673Z,7.99
2022-10-13T22:58:23.583Z,7.97
2022-10-13T23:03:27.613Z,7.94
2022-10-13T23:08:31.966Z,7.89
2022-10-13T23:13:36.479Z,7.82
2022-10-13T23:18:41.049Z,7.75
2022-10-13T23:23:45.779Z,7.69
2022-10-13T23:28:50.320Z,7.68
2022-10-13T23:33:54.909Z,7.61
2022-10-13T23:39:05.087Z,7.49
2022-10-13T23:44:10.355Z,7.42
2022-10-13T23:49:15.397Z,7.41
2022-10-13T23:54:20.091Z,7.33
2022-10-13T23:59:24.135Z,7.29
